createdAt,value
2022-09-26T00:01:49.421Z,10.13
2022-09-26T00:04:23.358Z,11.35
2022-09-26T00:06:53.550Z,10.23
2022-09-26T00:09:23.695Z,9.68
2022-09-26T00:11:52.750Z,8.50
2022-09-26T00:14:29.275Z,8.50
2022-09-26T00:16:58.225Z,10.68
2022-09-26T00:19:26.508Z,7.80
2022-09-26T00:21:54.637Z,7.80
2022-09-26T00:24:22.719Z,9.60
2022-09-26T00:26:50.951Z,9.05
2022-09-26T00:29:19.182Z,7.05
2022-09-26T00:31:49.150Z,9.70
2022-09-26T00:34:19.757Z,11.93
2022-09-26T00:36:49.795Z,8.05
2022-09-26T00:39:18.725Z,10.73
2022-09-26T00:41:46.894Z,9.85
2022-09-26T00:44:49.453Z,11.80
2022-09-26T00:47:38.387Z,10.90
2022-09-26T00:50:16.222Z,10.77
2022-09-26T00:52:50.428Z,10.43
2022-09-26T00:55:24.797Z,12.65
2022-09-26T00:57:59.116Z,13.02
2022-09-26T01:00:27.660Z,9.82
2022-09-26T01:02:58.321Z,10.35
2022-09-26T01:05:27.260Z,13.85
2022-09-26T01:07:58.031Z,12.48
2022-09-26T01:10:28.390Z,11.00
2022-09-26T01:12:58.028Z,13.13
2022-09-26T01:15:26.551Z,14.30
2022-09-26T01:17:56.914Z,10.55
2022-09-26T01:20:45.061Z,14.75
2022-09-26T01:23:51.969Z,12.45
2022-09-26T01:26:52.329Z,11.52
2022-09-26T01:29:59.020Z,17.25
2022-09-26T01:33:12.164Z,11.82
2022-09-26T01:35:59.177Z,12.93
2022-09-26T01:38:44.477Z,10.77
2022-09-26T01:41:37.728Z,15.10
2022-09-26T01:44:23.919Z,12.13
2022-09-26T01:46:59.798Z,9.57
2022-09-26T01:49:35.330Z,10.82
2022-09-26T01:52:11.923Z,11.43
2022-09-26T01:54:47.605Z,10.75
2022-09-26T01:57:25.273Z,11.82
2022-09-26T02:00:01.019Z,13.90
2022-09-26T02:02:36.972Z,9.38
2022-09-26T02:05:14.903Z,9.43
2022-09-26T02:07:50.254Z,11.68
2022-09-26T02:10:26.531Z,10.57
2022-09-26T02:13:04.101Z,10.38
2022-09-26T02:15:37.952Z,11.10
2022-09-26T02:18:16.162Z,11.27
2022-09-26T02:20:55.676Z,9.63
2022-09-26T02:23:23.859Z,10.38
2022-09-26T02:25:54.994Z,10.10
2022-09-26T02:28:23.304Z,9.07
2022-09-26T02:30:54.685Z,11.50
2022-09-26T02:33:25.300Z,9.82
2022-09-26T02:35:57.477Z,12.25
2022-09-26T02:38:32.325Z,9.52
2022-09-26T02:41:23.609Z,9.23
2022-09-26T02:44:13.521Z,11.95
2022-09-26T02:47:21.589Z,12.15
2022-09-26T02:50:15.346Z,13.32
2022-09-26T02:53:06.158Z,10.43
2022-09-26T02:55:55.556Z,9.80
2022-09-26T02:58:38.850Z,8.68
2022-09-26T03:01:17.930Z,11.23
2022-09-26T03:03:54.371Z,11.32
2022-09-26T03:06:31.225Z,13.73
2022-09-26T03:09:02.266Z,9.45
2022-09-26T03:11:32.508Z,10.52
2022-09-26T03:14:01.703Z,8.43
2022-09-26T03:16:41.989Z,10.57
2022-09-26T03:19:17.729Z,9.15
2022-09-26T03:21:47.558Z,9.15
2022-09-26T03:24:15.816Z,9.88
2022-09-26T03:26:45.043Z,8.93
2022-09-26T03:29:13.320Z,10.05
2022-09-26T03:31:42.250Z,9.13
2022-09-26T03:34:11.387Z,10.13
2022-09-26T03:36:40.730Z,7.82
2022-09-26T03:39:12.465Z,13.52
2022-09-26T03:42:01.995Z,7.65
2022-09-26T03:44:31.785Z,6.38
2022-09-26T03:47:05.652Z,7.57
2022-09-26T03:49:39.866Z,8.13
2022-09-26T03:52:12.082Z,7.53
2022-09-26T03:54:42.204Z,9.38
2022-09-26T03:57:12.744Z,9.30
2022-09-26T03:59:46.881Z,8.77
2022-09-26T04:02:16.571Z,11.63
2022-09-26T04:04:48.190Z,7.88
2022-09-26T04:07:17.293Z,8.82
2022-09-26T04:09:46.738Z,9.88
2022-09-26T04:12:15.131Z,9.65
2022-09-26T04:14:48.093Z,11.95
2022-09-26T04:17:18.798Z,10.85
2022-09-26T04:19:48.614Z,9.30
2022-09-26T04:22:16.875Z,8.93
2022-09-26T04:24:47.179Z,9.52
2022-09-26T04:27:16.941Z,9.07
2022-09-26T04:29:47.448Z,15.95
2022-09-26T04:32:51.030Z,7.57
2022-09-26T04:35:37.178Z,9.82
2022-09-26T04:38:06.907Z,12.85
2022-09-26T04:40:39.537Z,9.40
2022-09-26T04:43:12.202Z,14.02
2022-09-26T04:45:43.485Z,8.90
2022-09-26T04:48:12.715Z,10.40
2022-09-26T04:51:18.122Z,9.63
2022-09-26T04:53:47.637Z,10.95
2022-09-26T04:56:29.711Z,8.90
2022-09-26T04:59:00.090Z,13.90
2022-09-26T05:01:35.567Z,8.73
2022-09-26T05:04:09.789Z,9.40
2022-09-26T05:06:39.160Z,11.25
2022-09-26T05:09:10.221Z,7.72
2022-09-26T05:11:52.612Z,9.45
2022-09-26T05:14:20.745Z,11.57
2022-09-26T05:16:50.239Z,9.32
2022-09-26T05:19:21.246Z,10.95
2022-09-26T05:22:08.106Z,10.32
2022-09-26T05:24:59.221Z,13.00
2022-09-26T05:27:28.762Z,12.25
2022-09-26T05:29:56.891Z,12.13
2022-09-26T05:32:27.345Z,10.73
2022-09-26T05:34:56.120Z,9.15
2022-09-26T05:37:25.485Z,11.82
2022-09-26T05:40:12.285Z,10.02
2022-09-26T05:42:47.287Z,11.20
2022-09-26T05:45:15.736Z,9.27
2022-09-26T05:47:45.059Z,10.60
2022-09-26T05:50:13.242Z,12.65
2022-09-26T05:52:41.776Z,12.85
2022-09-26T05:55:17.954Z,10.27
2022-09-26T05:58:02.608Z,14.95
2022-09-26T06:00:51.579Z,10.95
2022-09-26T06:03:19.979Z,10.13
2022-09-26T06:06:11.492Z,11.95
2022-09-26T06:08:41.008Z,11.25
2022-09-26T06:11:30.914Z,11.63
2022-09-26T06:14:01.178Z,12.65
2022-09-26T06:16:30.431Z,12.47
2022-09-26T06:19:02.537Z,17.42
2022-09-26T06:21:30.823Z,13.05
2022-09-26T06:24:06.136Z,12.48
2022-09-26T06:26:34.379Z,13.13
2022-09-26T06:29:05.374Z,13.52
2022-09-26T06:31:36.435Z,15.35
2022-09-26T06:34:12.033Z,16.83
2022-09-26T06:37:03.074Z,15.85
2022-09-26T06:39:35.748Z,13.00
2022-09-26T06:42:07.311Z,13.52
2022-09-26T06:44:57.071Z,13.68
2022-09-26T06:47:25.346Z,14.70
2022-09-26T06:50:09.118Z,14.95
2022-09-26T06:52:40.324Z,15.02
2022-09-26T06:55:10.171Z,16.27
2022-09-26T06:57:40.648Z,17.02
2022-09-26T07:00:13.674Z,14.35
2022-09-26T07:03:01.256Z,15.60
2022-09-26T07:05:47.851Z,15.85
2022-09-26T07:08:16.922Z,18.38
2022-09-26T07:10:45.217Z,18.27
2022-09-26T07:13:19.518Z,20.10
2022-09-26T07:15:50.740Z,17.00
2022-09-26T07:18:39.631Z,20.85
2022-09-26T07:21:21.029Z,14.95
2022-09-26T07:24:03.057Z,14.43
2022-09-26T07:26:31.371Z,16.43
2022-09-26T07:28:59.633Z,20.00
2022-09-26T07:31:30.990Z,16.50
2022-09-26T07:34:19.454Z,16.00
2022-09-26T07:36:48.069Z,13.82
2022-09-26T07:39:16.811Z,20.95
2022-09-26T07:41:46.707Z,16.45
2022-09-26T07:45:17.080Z,14.25
2022-09-26T07:47:22.788Z,17.25
2022-09-26T07:50:08.989Z,14.93
2022-09-26T07:52:57.069Z,14.85
2022-09-26T07:55:28.865Z,12.55
2022-09-26T07:58:27.869Z,13.38
2022-09-26T08:01:25.957Z,12.90
2022-09-26T08:04:17.054Z,13.98
2022-09-26T08:06:45.464Z,12.82
2022-09-26T08:09:14.903Z,12.43
2022-09-26T08:12:02.330Z,13.23
2022-09-26T08:14:50.025Z,13.95
2022-09-26T08:17:36.960Z,10.55
2022-09-26T08:20:08.292Z,13.18
2022-09-26T08:22:36.571Z,10.38
2022-09-26T08:25:06.860Z,10.70
2022-09-26T08:28:13.861Z,9.52
2022-09-26T08:30:44.911Z,10.88
2022-09-26T08:33:13.945Z,10.25
2022-09-26T08:35:43.448Z,7.43
2022-09-26T08:38:36.385Z,7.30
2022-09-26T08:41:46.031Z,8.27
2022-09-26T08:45:02.311Z,9.45
2022-09-26T08:47:50.247Z,8.85
2022-09-26T08:50:50.021Z,9.88
2022-09-26T08:53:23.180Z,9.93
2022-09-26T08:55:57.468Z,7.60
2022-09-26T08:58:32.026Z,9.85
2022-09-26T09:01:10.262Z,7.28
2022-09-26T09:04:04.607Z,8.07
2022-09-26T09:06:35.942Z,6.85
2022-09-26T09:09:04.842Z,6.55
2022-09-26T09:12:11.425Z,5.35
2022-09-26T09:15:24.063Z,7.13
2022-09-26T09:18:28.038Z,4.72
2022-09-26T09:21:41.661Z,5.80
2022-09-26T09:24:51.657Z,5.00
2022-09-26T09:27:53.910Z,6.53
2022-09-26T09:30:26.597Z,8.65
2022-09-26T09:33:41.364Z,5.63
2022-09-26T09:36:33.014Z,4.68
2022-09-26T09:39:36.863Z,6.28
2022-09-26T09:42:24.091Z,4.38
2022-09-26T09:45:00.330Z,4.47
2022-09-26T09:47:30.490Z,7.57
2022-09-26T09:50:00.677Z,5.93
2022-09-26T09:52:49.364Z,8.00
2022-09-26T09:55:38.759Z,4.30
2022-09-26T09:58:42.408Z,6.05
2022-09-26T10:01:25.545Z,4.13
2022-09-26T10:04:04.679Z,7.95
2022-09-26T10:06:44.784Z,7.35
2022-09-26T10:09:35.807Z,7.07
2022-09-26T10:12:31.075Z,4.63
2022-09-26T10:15:21.571Z,5.10
2022-09-26T10:18:24.612Z,4.10
2022-09-26T10:21:18.901Z,2.85
2022-09-26T10:23:50.332Z,4.05
2022-09-26T10:26:35.921Z,4.95
2022-09-26T10:29:21.948Z,6.13
2022-09-26T10:31:57.109Z,7.35
2022-09-26T10:34:28.887Z,5.25
2022-09-26T10:36:57.982Z,4.35
2022-09-26T10:39:49.429Z,4.93
2022-09-26T10:42:20.968Z,3.65
2022-09-26T10:44:57.949Z,3.63
2022-09-26T10:47:48.410Z,3.67
2022-09-26T10:50:48.676Z,6.13
2022-09-26T10:53:41.252Z,2.92
2022-09-26T10:56:25.135Z,7.00
2022-09-26T10:58:59.223Z,3.40
2022-09-26T11:01:32.165Z,5.47
2022-09-26T11:04:35.938Z,4.15
2022-09-26T11:07:30.276Z,3.40
2022-09-26T11:10:25.552Z,2.95
2022-09-26T11:13:17.645Z,5.32
2022-09-26T11:15:58.419Z,5.93
2022-09-26T11:18:43.581Z,5.38
2022-09-26T11:21:28.912Z,5.38
2022-09-26T11:33:14.428Z,3.03
2022-09-26T11:39:33.363Z,3.22
2022-09-26T11:42:26.102Z,5.40
2022-09-26T11:44:58.863Z,4.45
2022-09-26T11:48:11.153Z,3.92
2022-09-26T11:51:17.423Z,3.67
2022-09-26T11:54:17.721Z,2.25
2022-09-26T11:57:08.551Z,2.35
2022-09-26T12:00:12.085Z,7.85
2022-09-26T12:03:27.743Z,2.83
2022-09-26T12:06:09.946Z,8.52
2022-09-26T12:09:19.066Z,3.78
2022-09-26T12:12:05.968Z,4.03
2022-09-26T12:14:50.521Z,5.20
2022-09-26T12:17:36.985Z,1.73
2022-09-26T12:20:29.792Z,2.88
2022-09-26T12:23:10.365Z,3.92
2022-09-26T12:25:58.829Z,6.22
2022-09-26T12:28:58.507Z,2.78
2022-09-26T12:31:52.143Z,3.30
2022-09-26T12:35:02.539Z,2.30
2022-09-26T12:38:05.476Z,2.78
2022-09-26T12:40:43.434Z,2.88
2022-09-26T12:43:55.082Z,3.13
2022-09-26T12:46:48.131Z,2.63
2022-09-26T12:49:39.734Z,2.22
2022-09-26T12:52:26.586Z,4.05
2022-09-26T12:55:20.783Z,4.22
2022-09-26T12:58:16.777Z,2.53
2022-09-26T13:00:57.623Z,3.53
2022-09-26T13:04:29.009Z,1.48
2022-09-26T13:07:20.153Z,5.30
2022-09-26T13:10:27.929Z,1.00
2022-09-26T13:13:27.538Z,2.17
2022-09-26T13:16:15.039Z,3.97
2022-09-26T13:18:48.097Z,2.67
2022-09-26T13:21:26.967Z,2.85
2022-09-26T13:24:00.318Z,1.98
2022-09-26T13:26:42.642Z,2.67
2022-09-26T13:29:20.392Z,2.13
2022-09-26T13:31:55.895Z,2.58
2022-09-26T13:34:32.470Z,7.68
2022-09-26T13:37:09.859Z,4.43
2022-09-26T13:39:48.002Z,1.55
2022-09-26T13:42:26.553Z,1.95
2022-09-26T13:45:15.348Z,0.70
2022-09-26T13:47:55.420Z,1.77
2022-09-26T13:50:30.836Z,4.10
2022-09-26T13:53:11.203Z,1.45
2022-09-26T13:55:39.425Z,1.70
2022-09-26T13:58:25.530Z,2.17
2022-09-26T14:00:57.655Z,2.88
2022-09-26T14:03:43.181Z,3.22
2022-09-26T14:06:34.208Z,0.80
2022-09-26T14:09:28.399Z,1.65
2022-09-26T14:12:35.027Z,0.57
2022-09-26T14:15:28.414Z,1.15
2022-09-26T14:18:31.592Z,0.68
2022-09-26T14:21:19.128Z,0.45
2022-09-26T14:23:50.014Z,1.10
2022-09-26T14:26:22.084Z,0.95
2022-09-26T14:28:55.826Z,4.32
2022-09-26T14:32:01.628Z,1.58
2022-09-26T14:34:38.274Z,0.77
2022-09-26T14:37:30.511Z,0.90
2022-09-26T14:40:20.342Z,2.13
2022-09-26T14:43:13.461Z,2.65
2022-09-26T14:46:01.929Z,4.93
2022-09-26T14:48:38.835Z,1.60
2022-09-26T14:51:27.863Z,2.35
2022-09-26T14:54:02.349Z,1.50
2022-09-26T14:56:50.072Z,2.42
2022-09-26T14:59:41.543Z,2.83
2022-09-26T15:02:38.550Z,1.33
2022-09-26T15:05:29.649Z,4.07
2022-09-26T15:08:00.794Z,2.13
2022-09-26T15:10:43.332Z,1.45
2022-09-26T15:13:26.518Z,2.88
2022-09-26T15:16:09.703Z,4.63
2022-09-26T15:18:42.763Z,1.45
2022-09-26T15:21:27.522Z,4.15
2022-09-26T15:23:58.377Z,1.50
2022-09-26T15:26:31.740Z,1.25
2022-09-26T15:29:01.567Z,1.85
2022-09-26T15:31:39.341Z,1.13
2022-09-26T15:34:16.385Z,2.20
2022-09-26T15:36:51.298Z,2.47
2022-09-26T15:39:43.204Z,1.58
2022-09-26T15:42:48.858Z,2.92
2022-09-26T15:45:27.620Z,2.92
2022-09-26T15:47:59.230Z,1.63
2022-09-26T15:50:34.457Z,3.60
2022-09-26T15:53:12.189Z,1.80
2022-09-26T15:55:52.249Z,1.30
2022-09-26T15:58:31.505Z,5.40
2022-09-26T16:01:00.568Z,1.88
2022-09-26T16:03:47.990Z,3.78
2022-09-26T16:06:26.982Z,1.80
2022-09-26T16:09:04.976Z,1.75
2022-09-26T16:11:35.550Z,1.30
2022-09-26T16:14:05.985Z,1.77
2022-09-26T16:16:36.192Z,1.88
2022-09-26T16:19:05.186Z,2.50
2022-09-26T16:21:37.531Z,2.83
2022-09-26T16:24:34.247Z,1.40
2022-09-26T16:27:03.786Z,3.58
2022-09-26T16:29:34.917Z,3.63
2022-09-26T16:32:05.415Z,6.38
2022-09-26T16:34:34.046Z,5.28
2022-09-26T16:37:02.447Z,3.58
2022-09-26T16:39:33.196Z,2.45
2022-09-26T16:42:05.706Z,3.03
2022-09-26T16:44:38.239Z,2.92
2022-09-26T16:47:35.259Z,2.83
2022-09-26T16:50:27.937Z,6.13
2022-09-26T16:52:57.526Z,5.20
2022-09-26T16:55:29.101Z,7.47
2022-09-26T16:58:00.401Z,10.18
2022-09-26T17:00:52.364Z,8.45
2022-09-26T17:03:25.209Z,9.80
2022-09-26T17:05:56.184Z,9.05
2022-09-26T17:08:25.382Z,8.98
2022-09-26T17:10:58.158Z,14.07
2022-09-26T17:13:32.867Z,9.27
2022-09-26T17:16:03.626Z,15.63
2022-09-26T17:18:33.797Z,12.43
2022-09-26T17:21:03.036Z,7.78
2022-09-26T17:23:40.620Z,9.43
2022-09-26T17:26:19.499Z,6.53
2022-09-26T17:28:50.773Z,6.00
2022-09-26T17:31:20.709Z,5.15
2022-09-26T17:33:52.656Z,2.72
2022-09-26T17:36:25.054Z,3.15
2022-09-26T17:38:54.579Z,7.53
2022-09-26T17:41:25.261Z,9.20
2022-09-26T17:43:58.737Z,3.10
2022-09-26T17:46:28.124Z,2.10
2022-09-26T17:48:56.549Z,3.03
2022-09-26T17:51:26.057Z,5.45
2022-09-26T17:53:57.397Z,4.90
2022-09-26T17:56:27.287Z,2.50
2022-09-26T17:58:56.969Z,3.55
2022-09-26T18:01:33.632Z,4.03
2022-09-26T18:04:07.486Z,4.25
2022-09-26T18:06:36.911Z,4.63
2022-09-26T18:09:10.021Z,3.42
2022-09-26T18:11:41.853Z,2.58
2022-09-26T18:14:16.186Z,6.32
2022-09-26T18:16:44.877Z,6.47
2022-09-26T18:19:13.382Z,11.73
2022-09-26T18:21:41.954Z,9.18
2022-09-26T18:24:19.938Z,5.13
2022-09-26T18:26:56.785Z,3.88
2022-09-26T18:29:31.924Z,1.90
2022-09-26T18:32:02.788Z,1.70
2022-09-26T18:34:31.606Z,1.15
2022-09-26T18:37:01.690Z,1.88
2022-09-26T18:39:31.513Z,1.88
2022-09-26T18:42:06.144Z,1.45
2022-09-26T18:44:35.378Z,1.45
2022-09-26T18:47:07.826Z,5.60
2022-09-26T18:49:38.957Z,2.83
2022-09-26T18:52:15.009Z,1.70
2022-09-26T18:54:44.971Z,4.03
2022-09-26T18:57:41.496Z,3.22
2022-09-26T19:00:11.608Z,1.52
2022-09-26T19:02:40.605Z,2.88
2022-09-26T19:05:16.357Z,1.48
2022-09-26T19:07:45.201Z,1.20
2022-09-26T19:10:17.576Z,2.85
2022-09-26T19:12:48.290Z,2.47
2022-09-26T19:15:17.812Z,3.67
2022-09-26T19:17:46.521Z,1.88
2022-09-26T19:20:15.077Z,1.60
2022-09-26T19:22:43.775Z,1.15
2022-09-26T19:25:12.227Z,3.08
2022-09-26T19:27:50.255Z,2.08
2022-09-26T19:30:22.531Z,3.83
2022-09-26T19:32:54.593Z,1.25
2022-09-26T19:35:28.262Z,0.55
2022-09-26T19:37:56.725Z,2.47
2022-09-26T19:40:26.352Z,1.10
2022-09-26T19:42:57.204Z,1.65
2022-09-26T19:45:27.243Z,2.30
2022-09-26T19:47:57.102Z,2.92
2022-09-26T19:50:27.517Z,2.42
2022-09-26T19:52:58.399Z,2.40
2022-09-26T19:55:30.058Z,2.53
2022-09-26T19:58:07.992Z,3.88
2022-09-26T20:00:41.378Z,2.78
2022-09-26T20:03:17.718Z,1.02
2022-09-26T20:05:47.738Z,1.08
2022-09-26T20:08:20.458Z,2.28
2022-09-26T20:10:49.110Z,1.48
2022-09-26T20:13:19.663Z,1.48
2022-09-26T20:15:49.123Z,3.13
2022-09-26T20:18:22.228Z,1.80
2022-09-26T20:20:55.663Z,1.20
2022-09-26T20:23:27.397Z,2.10
2022-09-26T20:25:57.143Z,2.28
2022-09-26T20:28:26.948Z,1.60
2022-09-26T20:30:58.376Z,0.93
2022-09-26T20:33:29.299Z,1.08
2022-09-26T20:36:03.662Z,0.90
2022-09-26T20:38:39.591Z,1.02
2022-09-26T20:41:17.412Z,1.50
2022-09-26T20:43:52.993Z,2.55
2022-09-26T20:46:23.021Z,1.30
2022-09-26T20:48:52.489Z,1.60
2022-09-26T20:51:30.660Z,1.25
2022-09-26T20:54:00.637Z,1.83
2022-09-26T20:56:29.799Z,2.95
2022-09-26T20:58:59.481Z,1.55
2022-09-26T21:01:29.177Z,1.48
2022-09-26T21:03:58.251Z,1.50
2022-09-26T21:06:37.125Z,2.58
2022-09-26T21:09:05.698Z,1.75
2022-09-26T21:11:34.062Z,1.65
2022-09-26T21:14:03.724Z,3.05
2022-09-26T21:16:32.600Z,2.05
2022-09-26T21:19:01.139Z,2.67
2022-09-26T21:21:31.639Z,1.63
2022-09-26T21:24:22.862Z,1.60
2022-09-26T21:26:53.520Z,1.90
2022-09-26T21:29:23.241Z,2.40
2022-09-26T21:31:58.458Z,1.88
2022-09-26T21:34:29.001Z,3.47
2022-09-26T21:37:09.584Z,2.69
2022-09-26T21:39:40.103Z,3.13
2022-09-26T21:42:09.211Z,2.38
2022-09-26T21:44:43.599Z,3.53
2022-09-26T21:47:11.980Z,1.42
2022-09-26T21:49:40.362Z,1.67
2022-09-26T21:52:14.623Z,1.15
2022-09-26T21:54:45.794Z,1.48
2022-09-26T21:57:22.132Z,4.55
2022-09-26T21:59:53.498Z,6.15
2022-09-26T22:02:21.952Z,2.17
2022-09-26T22:04:51.931Z,2.97
2022-09-26T22:07:20.479Z,2.58
2022-09-26T22:09:48.780Z,1.08
2022-09-26T22:12:17.442Z,2.08
2022-09-26T22:14:45.701Z,2.72
2022-09-26T22:17:15.419Z,1.38
2022-09-26T22:19:43.913Z,4.03
2022-09-26T22:22:12.238Z,2.85
2022-09-26T22:24:40.559Z,1.05
2022-09-26T22:27:08.881Z,1.67
2022-09-26T22:29:37.143Z,3.97
2022-09-26T22:32:06.180Z,1.55
2022-09-26T22:34:35.844Z,1.35
2022-09-26T22:37:04.200Z,3.53
2022-09-26T22:39:32.866Z,1.48
2022-09-26T22:42:01.381Z,2.70
2022-09-26T22:44:30.104Z,1.30
2022-09-26T22:46:58.481Z,2.53
2022-09-26T22:49:27.058Z,3.15
2022-09-26T22:51:56.999Z,1.90
2022-09-26T22:54:25.688Z,1.42
2022-09-26T22:56:54.320Z,2.58
2022-09-26T22:59:22.736Z,3.72
2022-09-26T23:01:51.739Z,1.35
2022-09-26T23:04:20.515Z,2.65
2022-09-26T23:06:49.090Z,2.70
2022-09-26T23:09:18.750Z,2.45
2022-09-26T23:11:47.077Z,2.40
2022-09-26T23:14:15.426Z,2.85
2022-09-26T23:16:43.719Z,4.05
2022-09-26T23:19:12.047Z,7.10
2022-09-26T23:21:40.358Z,6.68
2022-09-26T23:24:09.043Z,7.32
2022-09-26T23:26:38.680Z,2.78
2022-09-26T23:29:07.073Z,3.00
2022-09-26T23:31:35.574Z,3.15
2022-09-26T23:34:04.124Z,2.53
2022-09-26T23:36:32.400Z,2.03
2022-09-26T23:39:00.730Z,3.15
2022-09-26T23:41:29.123Z,1.77
2022-09-26T23:43:58.912Z,3.05
2022-09-26T23:46:27.291Z,2.53
2022-09-26T23:48:55.804Z,3.08
2022-09-26T23:51:24.138Z,4.22
2022-09-26T23:53:52.511Z,2.30
2022-09-26T23:56:21.160Z,1.65
2022-09-26T23:58:49.453Z,2.20
